Coffman, Missouri
Current Conditions -  °F | °C
As of 5:55 PM on Monday 20 Oct 2014 (Local Time) from KSAR Reporting Station
Clear Clear  
Wind Chill: 69°   Ceiling: Unl
Heat Index: 69°   Visibility: 10mi
Dew Point: 45°   Wind: 8mph
Humidity: 42%   Direction: 320°NW
Pressure: 29.96"   Gusts: NA
Location:  37.9762°N, 90.0499°W
Report Text: KSAR 202255Z AUTO 32007KT 10SM CLR 21/07 A2996 RMK AO2 T02050071
Loading
Personal Weather Stations






























Interactive Weather Map
Tropical Storm Tracking
New forecast layout! Learn more

10-Day Weather Forecast

Advertisements
Track Severe Weather on mobile